Time;durP1;ratioP1;P1;durP2;ratioP2;P2;SDS_P1;SDS_P2;PMS_P1;PMS_P2;Temp;Humidity;BMP_temperature;BMP_pressure;BME280_temperature;BME280_humidity;BME280_pressure;Samples;Min_cycle;Max_cycle;Signal;HPM_P1;HPM_P2
2023/01/07 00:00:03;;;;;;;17.12;12.68;;;;;;;;;;4438571;32;20430;-75
2023/01/07 00:02:28;;;;;;;16.55;12.82;;;;;;;;;;4436573;32;20061;-75
2023/01/07 00:04:53;;;;;;;;;;;;;;;;;;4436326;32;20060;-75
2023/01/07 00:07:18;;;;;;;16.45;12.30;;;;;;;;;;4436022;32;19945;-75
2023/01/07 00:09:44;;;;;;;14.90;11.10;;;;;;;;;;4435989;32;20025;-75
2023/01/07 00:12:09;;;;;;;13.50;11.65;;;;;;;;;;4437518;32;20023;-75
2023/01/07 00:14:34;;;;;;;12.00;10.52;;;;;;;;;;4436853;32;20527;-75
2023/01/07 00:16:59;;;;;;;15.35;11.02;;;;;;;;;;4437162;32;20108;-75
2023/01/07 00:19:24;;;;;;;;;;;;;;;;;;4438221;32;20511;-75
2023/01/07 00:21:49;;;;;;;14.75;11.02;;;;;;;;;;4435944;32;19941;-75
2023/01/07 00:24:15;;;;;;;;;;;;;;;;;;4438370;32;20564;-75
2023/01/07 00:26:40;;;;;;;14.90;10.63;;;;;;;;;;4436647;32;19936;-76
2023/01/07 00:29:05;;;;;;;;;;;;;;;;;;4436672;32;20175;-75
2023/01/07 00:31:30;;;;;;;;;;;;;;;;;;4436485;32;19933;-76
2023/01/07 00:36:20;;;;;;;;;;;;;;;;;;4444526;32;19927;-73
2023/01/07 00:38:45;;;;;;;;;;;;;;;;;;4453716;32;19936;-74
2023/01/07 00:41:11;;;;;;;;;;;;;;;;;;4442974;32;19939;-74
2023/01/07 00:43:36;;;;;;;;;;;;;;;;;;4437378;32;19986;-75
2023/01/07 00:46:01;;;;;;;;;;;;;;;;;;4436805;32;19974;-74
2023/01/07 00:48:26;;;;;;;;;;;;;;;;;;4436342;32;19944;-74
2023/01/07 00:50:51;;;;;;;;;;;;;;;;;;4436184;32;19990;-74
2023/01/07 00:53:16;;;;;;;;;;;;;;;;;;4436344;32;19933;-74
2023/01/07 00:55:41;;;;;;;;;;;;;;;;;;4436061;32;19933;-75
2023/01/07 00:58:06;;;;;;;;;;;;;;;;;;4436111;32;19969;-74
2023/01/07 01:00:31;;;;;;;;;;;;;;;;;;4436066;32;19996;-74
2023/01/07 01:02:58;;;;;;;;;;;;;;;;;;4436234;32;20281;-75
2023/01/07 01:05:23;;;;;;;;;;;;;;;;;;4435515;32;20349;-76
2023/01/07 01:07:48;;;;;;;;;;;;;;;;;;4437231;32;20314;-74
2023/01/07 01:10:13;;;;;;;;;;;;;;;;;;4436552;32;19983;-74
2023/01/07 01:12:38;;;;;;;;;;;;;;;;;;4436415;32;19937;-75
2023/01/07 01:15:03;;;;;;;;;;;;;;;;;;4436655;32;19932;-75
2023/01/07 01:17:28;;;;;;;;;;;;;;;;;;4439330;32;19933;-75
2023/01/07 01:19:53;;;;;;;;;;;;;;;;;;4439318;32;19997;-74
2023/01/07 01:22:18;;;;;;;;;;;;;;;;;;4439272;32;19953;-74
2023/01/07 01:24:44;;;;;;;;;;;;;;;;;;4441126;32;19951;-75
2023/01/07 01:27:09;;;;;;;;;;;;;;;;;;4438624;32;19933;-74
2023/01/07 01:29:34;;;;;;;;;;;;;;;;;;4439144;32;19991;-74
2023/01/07 01:31:59;;;;;;;;;;;;;;;;;;4440659;32;19933;-74
2023/01/07 01:34:25;;;;;;;;;;;;;;;;;;4438551;32;19980;-74
2023/01/07 01:36:50;;;;;;;;;;;;;;;;;;4439995;32;19951;-74
2023/01/07 01:39:15;;;;;;;;;;;;;;;;;;4439405;32;19985;-74
2023/01/07 01:41:40;;;;;;;;;;;;;;;;;;4424491;32;19936;-74
2023/01/07 01:44:05;;;;;;;;;;;;;;;;;;4439145;32;20359;-74
2023/01/07 01:46:30;;;;;;;;;;;;;;;;;;4439693;32;19933;-74
2023/01/07 01:48:55;;;;;;;;;;;;;;;;;;4440748;32;19976;-74
2023/01/07 01:51:20;;;;;;;;;;;;;;;;;;4439168;32;19947;-74
2023/01/07 01:53:45;;;;;;;;;;;;;;;;;;4439654;32;20008;-74
2023/01/07 01:56:10;;;;;;;;;;;;;;;;;;4440845;32;19985;-73
2023/01/07 01:58:36;;;;;;;;;;;;;;;;;;4455808;32;19913;-74
2023/01/07 02:01:01;;;;;;;;;;;;;;;;;;4452386;32;19943;-74
2023/01/07 02:03:26;;;;;;;;;;;;;;;;;;4440486;32;20060;-74
2023/01/07 02:05:51;;;;;;;;;;;;;;;;;;4438871;32;19941;-74
2023/01/07 02:08:20;;;;;;;;;;;;;;;;;;4440005;32;20377;-74
2023/01/07 02:10:47;;;;;;;;;;;;;;;;;;4439541;32;20357;-74
2023/01/07 02:13:12;;;;;;;;;;;;;;;;;;4438522;32;19945;-74
2023/01/07 02:15:37;;;;;;;;;;;;;;;;;;4439742;32;20345;-73
2023/01/07 02:18:02;;;;;;;;;;;;;;;;;;4439028;32;19936;-74
2023/01/07 02:20:27;;;;;;;;;;;;;;;;;;4439964;32;19932;-73
2023/01/07 02:22:52;;;;;;;;;;;;;;;;;;4439742;32;19949;-73
2023/01/07 02:25:17;;;;;;;;;;;;;;;;;;4438045;32;20310;-73
2023/01/07 02:27:42;;;;;;;;;;;;;;;;;;4437751;32;19952;-74
2023/01/07 02:30:07;;;;;;;;;;;;;;;;;;4438246;32;19933;-73
2023/01/07 02:32:32;;;;;;;;;;;;;;;;;;4439759;32;19933;-73
2023/01/07 02:34:57;;;;;;;;;;;;;;;;;;4438089;32;20360;-74
2023/01/07 02:37:22;;;;;;;;;;;;;;;;;;4438366;32;19983;-74
2023/01/07 02:39:48;;;;;;;;;;;;;;;;;;4438045;32;19933;-74
2023/01/07 02:42:13;;;;;;;;;;;;;;;;;;4438171;32;19937;-74
2023/01/07 02:44:38;;;;;;;;;;;;;;;;;;4439543;32;19948;-74
2023/01/07 02:47:03;;;;;;;;;;;;;;;;;;4437966;32;20287;-74
2023/01/07 02:49:28;;;;;;;;;;;;;;;;;;4438037;32;20289;-74
2023/01/07 02:51:53;;;;;;;;;;;;;;;;;;4438118;32;20336;-74
2023/01/07 02:54:18;;;;;;;;;;;;;;;;;;4439054;32;19975;-74
2023/01/07 02:56:43;;;;;;;;;;;;;;;;;;4437545;32;19944;-74
2023/01/07 02:59:08;;;;;;;;;;;;;;;;;;4423692;32;19973;-74
2023/01/07 03:01:33;;;;;;;;;;;;;;;;;;4423373;32;19937;-74
2023/01/07 03:03:58;;;;;;;;;;;;;;;;;;4424937;32;19985;-74
2023/01/07 03:06:24;;;;;;;;;;;;;;;;;;4438135;32;19969;-74
2023/01/07 03:08:49;;;;;;;;;;;;;;;;;;4437243;32;19980;-74
2023/01/07 03:11:14;;;;;;;;;;;;;;;;;;4424450;32;20274;-74
2023/01/07 03:13:39;;;;;;;;;;;;;;;;;;4437412;32;19943;-73
2023/01/07 03:16:04;;;;;;;;;;;;;;;;;;4437970;32;20347;-74
2023/01/07 03:18:29;;;;;;;;;;;;;;;;;;4426526;32;19936;-75
2023/01/07 03:20:54;;;;;;;;;;;;;;;;;;4453665;32;19946;-74
2023/01/07 03:23:19;;;;;;;;;;;;;;;;;;4443372;32;19937;-73
2023/01/07 03:25:45;;;;;;;;;;;;;;;;;;4438177;32;20287;-74
2023/01/07 03:28:10;;;;;;;;;;;;;;;;;;4436083;32;19952;-74
2023/01/07 03:30:35;;;;;;;;;;;;;;;;;;4436884;32;19981;-74
2023/01/07 03:33:00;;;;;;;;;;;;;;;;;;4437178;32;20336;-74
2023/01/07 03:35:25;;;;;;;;;;;;;;;;;;4438012;32;19964;-74
2023/01/07 03:37:50;;;;;;;;;;;;;;;;;;4438470;32;19996;-74
2023/01/07 03:40:15;;;;;;;;;;;;;;;;;;4438231;32;19988;-74
2023/01/07 03:42:40;;;;;;;;;;;;;;;;;;4437140;32;19977;-74
2023/01/07 03:45:06;;;;;;;;;;;;;;;;;;4436955;32;20382;-74
2023/01/07 03:47:31;;;;;;;;;;;;;;;;;;4423272;32;19944;-74
2023/01/07 03:49:56;;;;;;;;;;;;;;;;;;4438944;32;19947;-74
2023/01/07 03:52:21;;;;;;;;;;;;;;;;;;4438499;32;19990;-74
2023/01/07 03:54:46;;;;;;;;;;;;;;;;;;4437623;32;20025;-74
2023/01/07 03:57:11;;;;;;;;;;;;;;;;;;4437474;32;19936;-74
2023/01/07 03:59:36;;;;;;;;;;;;;;;;;;4423963;32;19951;-74
2023/01/07 04:02:01;;;;;;;;;;;;;;;;;;4437194;32;19951;-74
2023/01/07 04:04:26;;;;;;;;;;;;;;;;;;4437477;32;19967;-74
2023/01/07 04:06:51;;;;;;;;;;;;;;;;;;4437619;32;19947;-74
2023/01/07 04:09:20;;;;;;;;;;;;;;;;;;4422806;32;19948;-74
2023/01/07 04:11:46;;;;;;;;;;;;;;;;;;4439801;32;20301;-74
2023/01/07 04:14:11;;;;;;;;;;;;;;;;;;4440385;32;20266;-74
2023/01/07 04:16:36;;;;;;;;;;;;;;;;;;4443162;32;19969;-74
2023/01/07 04:19:01;;;;;;;;;;;;;;;;;;4439841;32;19937;-74
2023/01/07 04:21:26;;;;;;;;;;;;;;;;;;4437302;32;20282;-75
2023/01/07 04:23:52;;;;;;;;;;;;;;;;;;4422647;32;20370;-73
2023/01/07 04:26:17;;;;;;;;;;;;;;;;;;4436823;32;19933;-74
2023/01/07 04:28:42;;;;;;;;;;;;;;;;;;4438331;32;20279;-73
2023/01/07 04:31:07;;;;;;;;;;;;;;;;;;4436911;32;19951;-73
2023/01/07 04:33:32;;;;;;;;;;;;;;;;;;4436198;32;20270;-73
2023/01/07 04:35:57;;;;;;;;;;;;;;;;;;4437877;32;19976;-74
2023/01/07 04:38:22;;;;;;;;;;;;;;;;;;4437633;32;19933;-74
2023/01/07 04:40:47;;;;;;;;;;;;;;;;;;4441376;32;19933;-74
2023/01/07 04:43:12;;;;;;;;;;;;;;;;;;4448435;32;19948;-74
2023/01/07 04:45:37;;;;;;;;;;;;;;;;;;4436066;32;19933;-74
2023/01/07 04:48:02;;;;;;;;;;;;;;;;;;4436496;32;19937;-74
2023/01/07 04:50:28;;;;;;;;;;;;;;;;;;4435959;32;20283;-74
2023/01/07 04:52:53;;;;;;;;;;;;;;;;;;4436529;32;19989;-74
2023/01/07 04:55:18;;;;;;;;;;;;;;;;;;4423576;32;19951;-74
2023/01/07 04:57:43;;;;;;;;;;;;;;;;;;4438055;32;20337;-74
2023/01/07 05:00:08;;;;;;;;;;;;;;;;;;4435829;32;19968;-74
2023/01/07 05:02:33;;;;;;;;;;;;;;;;;;4437128;32;20074;-75
2023/01/07 05:04:58;;;;;;;;;;;;;;;;;;4436781;32;19937;-74
2023/01/07 05:07:23;;;;;;;;;;;;;;;;;;4436882;32;20271;-74
2023/01/07 05:09:48;;;;;;;;;;;;;;;;;;4436391;32;19932;-75
2023/01/07 05:12:13;;;;;;;;;;;;;;;;;;4436932;32;19932;-74
2023/01/07 05:14:39;;;;;;;;;;;;;;;;;;4438055;32;19948;-75
2023/01/07 05:17:04;;;;;;;;;;;;;;;;;;4436530;32;19937;-74
2023/01/07 05:19:29;;;;;;;;;;;;;;;;;;4438354;32;19932;-73
2023/01/07 05:21:54;;;;;;;;;;;;;;;;;;4436440;32;19975;-75
2023/01/07 05:24:19;;;;;;;;;;;;;;;;;;4437693;32;20002;-73
2023/01/07 05:26:44;;;;;;;;;;;;;;;;;;4436938;32;19933;-74
2023/01/07 05:29:09;;;;;;;;;;;;;;;;;;4438533;32;19976;-74
2023/01/07 05:31:34;;;;;;;;;;;;;;;;;;4436742;32;19989;-74
2023/01/07 05:33:59;;;;;;;;;;;;;;;;;;4436797;32;20343;-74
2023/01/07 05:36:25;;;;;;;;;;;;;;;;;;4436546;32;19933;-74
2023/01/07 05:38:50;;;;;;;;;;;;;;;;;;4421934;32;19947;-74
2023/01/07 05:41:15;;;;;;;;;;;;;;;;;;4436882;32;19982;-74
2023/01/07 05:43:40;;;;;;;;;;;;;;;;;;4422078;32;20326;-75
2023/01/07 05:46:05;;;;;;;;;;;;;;;;;;4437377;32;19945;-75
2023/01/07 05:48:30;;;;;;;;;;;;;;;;;;4437306;32;19941;-75
2023/01/07 05:50:55;;;;;;;;;;;;;;;;;;4437609;32;20379;-74
2023/01/07 05:53:20;;;;;;;;;;;;;;;;;;4423029;32;19948;-75
2023/01/07 05:55:45;;;;;;;;;;;;;;;;;;4437360;32;20362;-75
2023/01/07 05:58:10;;;;;;;;;;;;;;;;;;4435975;32;20284;-74
2023/01/07 06:00:36;;;;;;;;;;;;;;;;;;4436531;32;19991;-74
2023/01/07 06:03:01;;;;;;;;;;;;;;;;;;4452695;32;19936;-75
2023/01/07 06:05:26;;;;;;;;;;;;;;;;;;4443208;32;19983;-75
2023/01/07 06:07:51;;;;;;;;;;;;;;;;;;4445642;32;20208;-75
2023/01/07 06:10:16;;;;;;;;;;;;;;;;;;4424537;32;19980;-75
2023/01/07 06:12:41;;;;;;;;;;;;;;;;;;4439581;32;19939;-75
2023/01/07 06:15:06;;;;;;;;;;;;;;;;;;4440274;32;19951;-74
2023/01/07 06:17:31;;;;;;;;;;;;;;;;;;4438962;32;19984;-74
2023/01/07 06:19:56;;;;;;;;;;;;;;;;;;4424672;32;19947;-74
2023/01/07 06:22:22;;;;;;;;;;;;;;;;;;4423625;32;19949;-75
2023/01/07 06:24:47;;;;;;;;;;;;;;;;;;4438200;32;20028;-75
2023/01/07 06:27:12;;;;;;;;;;;;;;;;;;4440611;32;19937;-75
2023/01/07 06:29:37;;;;;;;;;;;;;;;;;;4427429;32;19981;-75
2023/01/07 06:32:02;;;;;;;;;;;;;;;;;;4424333;32;20022;-75
2023/01/07 06:34:27;;;;;;;;;;;;;;;;;;4439635;32;19932;-75
2023/01/07 06:36:52;;;;;;;;;;;;;;;;;;4438754;32;19932;-75
2023/01/07 06:39:17;;;;;;;;;;;;;;;;;;4424221;32;19933;-75
2023/01/07 06:41:42;;;;;;;;;;;;;;;;;;4437978;32;20345;-75
2023/01/07 06:44:08;;;;;;;;;;;;;;;;;;4426026;32;19941;-75
2023/01/07 06:46:33;;;;;;;;;;;;;;;;;;4438198;32;19938;-75
2023/01/07 06:48:58;;;;;;;;;;;;;;;;;;4438433;32;19941;-75
2023/01/07 06:51:23;;;;;;;;;;;;;;;;;;4440199;32;19933;-75
2023/01/07 06:53:48;;;;;;;;;;;;;;;;;;4428284;32;19951;-74
2023/01/07 06:56:13;;;;;;;;;;;;;;;;;;4429968;32;19941;-74
2023/01/07 06:58:38;;;;;;;;;;;;;;;;;;4438013;32;19972;-73
2023/01/07 07:01:04;;;;;;;;;;;;;;;;;;4439476;32;20328;-74
2023/01/07 07:03:29;;;;;;;;;;;;;;;;;;4437501;32;19978;-74
2023/01/07 07:05:54;;;;;;;;;;;;;;;;;;4425321;32;20239;-73
2023/01/07 07:08:19;;;;;;;;;;;;;;;;;;4437549;32;20341;-73
2023/01/07 07:10:44;;;;;;;;;;;;;;;;;;4437896;32;19932;-74
2023/01/07 07:13:10;;;;;;;;;;;;;;;;;;4439130;32;19932;-74
2023/01/07 07:15:36;;;;;;;;;;;;;;;;;;4424597;32;19982;-74
2023/01/07 07:18:01;;;;;;;;;;;;;;;;;;4439887;32;19941;-74
2023/01/07 07:20:26;;;;;;;;;;;;;;;;;;4441131;32;20025;-74
2023/01/07 07:22:51;;;;;;;;;;;;;;;;;;4448679;32;19933;-74
2023/01/07 07:25:16;;;;;;;;;;;;;;;;;;4436070;32;19995;-73
2023/01/07 07:27:41;;;;;;;;;;;;;;;;;;4442931;32;19943;-74
2023/01/07 07:30:07;;;;;;;;;;;;;;;;;;4438072;32;19936;-73
2023/01/07 07:32:32;;;;;;;;;;;;;;;;;;4438949;32;19967;-73
2023/01/07 07:34:57;;;;;;;;;;;;;;;;;;4423594;32;19970;-74
2023/01/07 07:37:22;;;;;;;;;;;;;;;;;;4439002;32;20255;-75
2023/01/07 07:39:47;;;;;;;;;;;;;;;;;;4437401;32;19941;-74
2023/01/07 07:42:12;;;;;;;;;;;;;;;;;;4437491;32;19984;-74
2023/01/07 07:44:37;;;;;;;;;;;;;;;;;;4438017;32;19936;-74
2023/01/07 07:47:02;;;;;;;;;;;;;;;;;;4438010;32;20264;-74
2023/01/07 07:49:27;;;;;;;;;;;;;;;;;;4436904;32;19936;-74
2023/01/07 07:51:53;;;;;;;;;;;;;;;;;;4436519;32;19945;-74
2023/01/07 07:54:18;;;;;;;;;;;;;;;;;;4437369;32;19997;-74
2023/01/07 07:56:43;;;;;;;;;;;;;;;;;;4437663;32;20204;-73
2023/01/07 07:59:08;;;;;;;;;;;;;;;;;;4436437;32;19992;-73
2023/01/07 08:01:33;;;;;;;;;;;;;;;;;;4438059;32;20294;-73
2023/01/07 08:03:58;;;;;;;;;;;;;;;;;;4436914;32;20000;-74
2023/01/07 08:06:23;;;;;;;;;;;;;;;;;;4436506;32;19955;-74
2023/01/07 08:08:48;;;;;;;;;;;;;;;;;;4438187;32;19937;-74
2023/01/07 08:11:13;;;;;;;;;;;;;;;;;;4438336;32;19947;-73
2023/01/07 08:13:39;;;;;;;;;;;;;;;;;;4423751;32;19956;-73
2023/01/07 08:16:04;;;;;;;;;;;;;;;;;;4438397;32;19967;-75
2023/01/07 08:18:29;;;;;;;;;;;;;;;;;;4437399;32;19962;-74
2023/01/07 08:20:54;;;;;;;;;;;;;;;;;;4436585;32;19943;-73
2023/01/07 08:23:19;;;;;;;;;;;;;;;;;;4436016;32;20287;-73
2023/01/07 08:25:44;;;;;;;;;;;;;;;;;;4421869;32;19937;-73
2023/01/07 08:28:09;;;;;;;;;;;;;;;;;;4436010;32;19933;-73
2023/01/07 08:30:35;;;;;;;;;;;;;;;;;;4438062;32;19933;-73
2023/01/07 08:33:00;;;;;;;;;;;;;;;;;;4436921;32;19988;-73
2023/01/07 08:35:25;;;;;;;;;;;;;;;;;;4423273;32;20362;-73
2023/01/07 08:37:50;;;;;;;;;;;;;;;;;;4438112;32;20018;-73
2023/01/07 08:40:15;;;;;;;;;;;;;;;;;;4437718;32;20293;-73
2023/01/07 08:42:40;;;;;;;;;;;;;;;;;;4438404;32;20382;-73
2023/01/07 08:45:05;;;;;;;;;;;;;;;;;;4446709;32;20096;-73
2023/01/07 08:47:30;;;;;;;;;;;;;;;;;;4445972;32;19937;-73
2023/01/07 08:49:56;;;;;;;;;;;;;;;;;;4434433;32;19977;-73
2023/01/07 08:52:21;;;;;;;;;;;;;;;;;;4427758;32;19963;-73
2023/01/07 08:54:46;;;;;;;;;;;;;;;;;;4423133;32;20017;-73
2023/01/07 08:57:11;;;;;;;;;;;;;;;;;;4437096;32;19969;-73
2023/01/07 08:59:38;;;;;;;;;;;;;;;;;;4422423;32;19986;-73
2023/01/07 09:02:03;;;;;;;;;;;;;;;;;;4435805;32;19947;-73
2023/01/07 09:04:28;;;;;;;;;;;;;;;;;;4437768;32;19941;-73
2023/01/07 09:06:53;;;;;;;;;;;;;;;;;;4436597;32;19952;-73
2023/01/07 09:09:19;;;;;;;;;;;;;;;;;;4437795;32;19992;-74
2023/01/07 09:11:44;;;;;;;;;;;;;;;;;;4436829;32;19940;-73
2023/01/07 09:14:09;;;;;;;;;;;;;;;;;;4433292;32;19937;-73
2023/01/07 09:16:34;;;;;;;;;;;;;;;;;;4417393;32;19951;-73
2023/01/07 09:18:59;;;;;;;;;;;;;;;;;;4415661;32;19949;-73
2023/01/07 09:21:24;;;;;;;;;;;;;;;;;;4420358;32;20278;-74
2023/01/07 09:23:49;;;;;;;;;;;;;;;;;;4428223;32;19988;-73
2023/01/07 09:26:14;;;;;;;;;;;;;;;;;;4426464;32;19966;-73
2023/01/07 09:28:39;;;;;;;;;;;;;;;;;;4408051;32;19998;-74
2023/01/07 09:31:05;;;;;;;;;;;;;;;;;;4420545;32;20374;-73
2023/01/07 09:33:31;;;;;;;;;;;;;;;;;;4407151;32;19944;-77
2023/01/07 09:35:56;;;;;;;;;;;;;;;;;;4420796;32;19991;-78
2023/01/07 09:38:21;;;;;;;;;;;;;;;;;;4409790;32;19975;-80
2023/01/07 09:40:46;;;;;;;;;;;;;;;;;;4423956;32;19983;-78
2023/01/07 09:43:11;;;;;;;;;;;;;;;;;;4423883;32;20311;-78
2023/01/07 09:45:36;;;;;;;;;;;;;;;;;;4423508;32;19983;-78
2023/01/07 09:48:02;;;;;;;;;;;;;;;;;;4424282;32;19980;-79
2023/01/07 09:50:27;;;;;;;;;;;;;;;;;;4425254;32;19937;-79
2023/01/07 09:52:52;;;;;;;;;;;;;;;;;;4415681;32;19937;-78
2023/01/07 09:55:18;;;;;;;;;;;;;;;;;;4418104;32;20000;-78
2023/01/07 09:57:43;;;;;;;;;;;;;;;;;;4433271;32;19977;-79
2023/01/07 10:00:08;;;;;;;;;;;;;;;;;;4435366;32;19944;-79
2023/01/07 10:02:33;;;;;;;;;;;;;;;;;;4429581;32;19975;-78
2023/01/07 10:04:58;;;;;;;;;;;;;;;;;;4424522;32;19929;-78
2023/01/07 10:07:23;;;;;;;;;;;;;;;;;;4434679;32;19941;-79
2023/01/07 10:09:49;;;;;;;;;;;;;;;;;;4430435;32;19944;-78
2023/01/07 10:12:14;;;;;;;;;;;;;;;;;;4424451;32;19963;-78
2023/01/07 10:14:39;;;;;;;;;;;;;;;;;;4425661;32;19933;-80
2023/01/07 10:17:04;;;;;;;;;;;;;;;;;;4430820;32;19941;-79
2023/01/07 10:19:29;;;;;;;;;;;;;;;;;;4432583;32;19987;-78
2023/01/07 10:21:54;;;;;;;;;;;;;;;;;;4439299;32;19941;-79
2023/01/07 10:24:19;;;;;;;;;;;;;;;;;;4437776;32;20212;-78
2023/01/07 10:26:46;;;;;;;;;;;;;;;;;;4444094;32;19937;-78
2023/01/07 10:29:11;;;;;;;;;;;;;;;;;;4439506;32;19933;-78
2023/01/07 10:31:36;;;;;;;;;;;;;;;;;;4438873;32;19987;-77
2023/01/07 10:34:01;;;;;;;;;;;;;;;;;;4439843;32;19941;-80
2023/01/07 10:36:27;;;;;;;;;;;;;;;;;;4439022;32;19969;-79
2023/01/07 10:38:52;;;;;;;;;;;;;;;;;;4438869;32;19974;-79
2023/01/07 10:41:17;;;;;;;;;;;;;;;;;;4424516;32;19941;-78
2023/01/07 10:43:42;;;;;;;;;;;;;;;;;;4440736;32;20296;-79
2023/01/07 10:46:07;;;;;;;;;;;;;;;;;;4424638;32;19937;-79
2023/01/07 10:48:32;;;;;;;;;;;;;;;;;;4438577;32;19967;-80
2023/01/07 10:50:57;;;;;;;;;;;;;;;;;;4438639;32;19973;-81
2023/01/07 10:53:22;;;;;;;;;;;;;;;;;;4437893;32;19943;-78
2023/01/07 10:55:49;;;;;;;;;;;;;;;;;;4423699;32;19936;-78
2023/01/07 10:58:14;;;;;;;;;;;;;;;;;;4439878;32;19945;-80
2023/01/07 11:00:39;;;;;;;;;;;;;;;;;;4439112;32;19980;-80
2023/01/07 11:03:04;;;;;;;;;;;;;;;;;;4438960;32;19990;-79
2023/01/07 11:05:29;;;;;;;;;;;;;;;;;;4439265;32;19937;-79
2023/01/07 11:07:54;;;;;;;;;;;;;;;;;;4440578;32;19933;-80
2023/01/07 11:10:20;;;;;;;;;;;;;;;;;;4438743;32;19941;-80
2023/01/07 11:12:45;;;;;;;;;;;;;;;;;;4425914;32;20037;-80
2023/01/07 11:15:10;;;;;;;;;;;;;;;;;;4438084;32;20000;-79
2023/01/07 11:17:35;;;;;;;;;;;;;;;;;;4424691;32;19948;-80
2023/01/07 11:20:00;;;;;;;;;;;;;;;;;;4438076;32;20262;-81
2023/01/07 11:22:25;;;;;;;;;;;;;;;;;;4439376;32;19971;-81
2023/01/07 11:24:50;;;;;;;;;;;;;;;;;;4441071;32;19929;-80
2023/01/07 11:27:16;;;;;;;;;;;;;;;;;;4447852;32;19973;-79
2023/01/07 11:29:41;;;;;;;;;;;;;;;;;;4452473;32;19940;-78
2023/01/07 11:32:06;;;;;;;;;;;;;;;;;;4440297;32;19972;-79
2023/01/07 11:34:33;;;;;;;;;;;;;;;;;;4437564;32;19996;-79
2023/01/07 11:36:58;;;;;;;;;;;;;;;;;;4422915;32;19929;-79
2023/01/07 11:39:23;;;;;;;;;;;;;;;;;;4437626;32;19967;-79
2023/01/07 11:41:49;;;;;;;;;;;;;;;;;;4437248;32;19949;-78
2023/01/07 11:44:15;;;;;;;;;;;;;;;;;;4435541;32;20041;-78
2023/01/07 11:46:40;;;;;;;;;;;;;;;;;;4415220;32;19937;-79
2023/01/07 11:49:05;;;;;;;;;;;;;;;;;;4429090;32;19956;-80
2023/01/07 11:51:30;;;;;;;;;;;;;;;;;;4429188;32;19973;-79
2023/01/07 11:53:55;;;;;;;;;;;;;;;;;;4428656;32;19951;-79
2023/01/07 11:56:21;;;;;;;;;;;;;;;;;;4421374;32;19940;-79
2023/01/07 11:58:46;;;;;;;;;;;;;;;;;;4429424;32;20002;-79
2023/01/07 12:01:11;;;;;;;;;;;;;;;;;;4426905;32;19983;-80
2023/01/07 12:03:36;;;;;;;;;;;;;;;;;;4430246;32;19948;-79
2023/01/07 12:06:01;;;;;;;;;;;;;;;;;;4429708;32;19951;-79
2023/01/07 12:08:26;;;;;;;;;;;;;;;;;;4429587;32;19991;-79
2023/01/07 12:10:51;;;;;;;;;;;;;;;;;;4417088;32;20017;-79
2023/01/07 12:13:16;;;;;;;;;;;;;;;;;;4415417;32;20355;-79
2023/01/07 12:15:41;;;;;;;;;;;;;;;;;;4427429;32;19941;-79
2023/01/07 12:18:07;;;;;;;;;;;;;;;;;;4428441;32;19977;-80
2023/01/07 12:20:32;;;;;;;;;;;;;;;;;;4428138;32;19949;-79
2023/01/07 12:22:57;;;;;;;;;;;;;;;;;;4414912;32;19940;-79
2023/01/07 12:25:22;;;;;;;;;;;;;;;;;;4422174;32;20355;-79
2023/01/07 12:27:47;;;;;;;;;;;;;;;;;;4436497;32;20016;-78
2023/01/07 12:30:12;;;;;;;;;;;;;;;;;;4436528;32;19951;-80
2023/01/07 12:32:37;;;;;;;;;;;;;;;;;;4443328;32;19944;-79
2023/01/07 12:35:02;;;;;;;;;;;;;;;;;;4446084;32;20383;-80
2023/01/07 12:37:29;;;;;;;;;;;;;;;;;;4437901;32;20310;-80
2023/01/07 12:39:54;;;;;;;;;;;;;;;;;;4423359;32;19929;-80
2023/01/07 12:42:19;;;;;;;;;;;;;;;;;;4436240;32;19947;-80
2023/01/07 12:44:44;;;;;;;;;;;;;;;;;;4437442;32;19949;-80
2023/01/07 12:47:09;;;;;;;;;;;;;;;;;;4444786;32;19933;-80
2023/01/07 12:49:34;;;;;;;;;;;;;;;;;;4452807;32;19917;-79
2023/01/07 12:51:59;;;;;;;;;;;;;;;;;;4439402;32;20251;-81
2023/01/07 12:54:25;;;;;;;;;;;;;;;;;;4437376;32;19940;-81
2023/01/07 12:56:50;;;;;;;;;;;;;;;;;;4437290;32;19941;-81
2023/01/07 12:59:15;;;;;;;;;;;;;;;;;;4436906;32;20011;-81
2023/01/07 13:01:40;;;;;;;;;;;;;;;;;;4436084;32;20298;-81
2023/01/07 13:04:05;;;;;;;;;;;;;;;;;;4437511;32;19936;-81
2023/01/07 13:06:30;;;;;;;;;;;;;;;;;;4436668;32;19947;-81
2023/01/07 13:08:55;;;;;;;;;;;;;;;;;;4437781;32;19952;-81
2023/01/07 13:12:41;;;;;;;;;;;;;;;;;;4439697;32;19933;-81
2023/01/07 13:14:05;;;;;;;;;;;;;;;;;;4444491;32;19924;-81
2023/01/07 13:16:30;;;;;;;;;;;;;;;;;;4454339;32;19943;-81
2023/01/07 13:18:55;;;;;;;;;;;;;;;;;;4452846;32;19932;-81
2023/01/07 13:21:21;;;;;;;;;;;;;;;;;;4452771;32;19929;-81
2023/01/07 13:23:46;;;;;;;;;;;;;;;;;;4452472;32;19928;-81
2023/01/07 13:26:11;;;;;;;;;;;;;;;;;;4445989;32;19998;-80
2023/01/07 13:28:36;;;;;;;;;;;;;;;;;;4440754;32;19947;-80
2023/01/07 13:31:01;;;;;;;;;;;;;;;;;;4439526;32;19936;-81
2023/01/07 13:33:27;;;;;;;;;;;;;;;;;;4425392;32;19979;-80
2023/01/07 13:35:52;;;;;;;;;;;;;;;;;;4440552;32;20272;-81
2023/01/07 13:38:17;;;;;;;;;;;;;;;;;;4438857;32;19936;-81
2023/01/07 13:40:42;;;;;;;;;;;;;;;;;;4440348;32;19936;-81
2023/01/07 13:43:07;;;;;;;;;;;;;;;;;;4439255;32;19944;-79
2023/01/07 13:45:32;;;;;;;;;;;;;;;;;;4439597;32;19948;-82
2023/01/07 13:47:58;;;;;;;;;;;;;;;;;;4439935;32;19946;-82
2023/01/07 13:50:23;;;;;;;;;;;;;;;;;;4439325;32;19944;-82
2023/01/07 13:52:48;;;;;;;;;;;;;;;;;;4439276;32;19948;-81
2023/01/07 13:55:13;;;;;;;;;;;;;;;;;;4440062;32;20276;-81
2023/01/07 13:57:38;;;;;;;;;;;;;;;;;;4421446;32;20342;-79
2023/01/07 14:00:03;;;;;;;;;;;;;;;;;;4423992;32;19996;-80
2023/01/07 14:02:28;;;;;;;;;;;;;;;;;;4409641;32;19945;-77
2023/01/07 14:04:53;;;;;;;;;;;;;;;;;;4425647;32;19948;-74
2023/01/07 14:07:19;;;;;;;;;;;;;;;;;;4435881;32;19918;-75
2023/01/07 14:09:44;;;;;;;;;;;;;;;;;;4453296;32;19933;-75
2023/01/07 14:12:09;;;;;;;;;;;;;;;;;;4438031;32;19941;-75
2023/01/07 14:14:34;;;;;;;;;;;;;;;;;;4424562;32;19940;-75
2023/01/07 14:16:59;;;;;;;;;;;;;;;;;;4439320;32;19940;-75
2023/01/07 14:19:24;;;;;;;;;;;;;;;;;;4439855;32;19937;-75
2023/01/07 14:21:49;;;;;;;;;;;;;;;;;;4438102;32;19996;-74
2023/01/07 14:24:14;;;;;;;;;;;;;;;;;;4437698;32;19936;-75
2023/01/07 14:26:40;;;;;;;;;;;;;;;;;;4438480;32;19937;-74
2023/01/07 14:29:05;;;;;;;;;;;;;;;;;;4423929;32;20319;-75
2023/01/07 14:31:30;;;;;;;;;;;;;;;;;;4438048;32;19936;-75
2023/01/07 14:33:57;;;;;;;;;;;;;;;;;;4423746;32;20391;-76
2023/01/07 14:36:22;;;;;;;;;;;;;;;;;;4424192;32;19980;-75
2023/01/07 14:38:47;;;;;;;;;;;;;;;;;;4437788;32;19968;-76
2023/01/07 14:41:12;;;;;;;;;;;;;;;;;;4425034;32;19971;-76
2023/01/07 14:43:37;;;;;;;;;;;;;;;;;;4439373;32;19933;-75
2023/01/07 14:46:02;;;;;;;;;;;;;;;;;;4438838;32;20306;-75
2023/01/07 14:48:28;;;;;;;;;;;;;;;;;;4438193;32;19956;-75
2023/01/07 14:50:53;;;;;;;;;;;;;;;;;;4438212;32;19944;-76
2023/01/07 14:53:18;;;;;;;;;;;;;;;;;;4438290;32;19945;-76
2023/01/07 14:55:43;;;;;;;;;;;;;;;;;;4439084;32;19948;-75
2023/01/07 14:58:08;;;;;;;;;;;;;;;;;;4437782;32;19940;-76
2023/01/07 15:00:33;;;;;;;;;;;;;;;;;;4438757;32;19961;-76
2023/01/07 15:02:58;;;;;;;;;;;;;;;;;;4439330;32;19992;-75
2023/01/07 15:05:23;;;;;;;;;;;;;;;;;;4438296;32;19980;-74
2023/01/07 15:07:48;;;;;;;;;;;;;;;;;;4437338;32;19985;-74
2023/01/07 15:16:00;;;;;;;;;;;;;;;;;;4438546;32;19940;-75
2023/01/07 15:18:25;;;;;;;;;;;;;;;;;;4437638;32;19937;-75
2023/01/07 15:20:50;;;;;;;;;;;;;;;;;;4437815;32;19972;-75
2023/01/07 15:23:15;;;;;;;;;;;;;;;;;;4438288;32;19944;-74
2023/01/07 15:25:40;;;;;;;;;;;;;;;;;;4441271;32;19939;-74
2023/01/07 15:28:06;;;;;;;;;;;;;;;;;;4453861;32;19947;-76
2023/01/07 15:30:31;;;;;;;;;;;;;;;;;;4447697;32;19940;-75
2023/01/07 15:32:56;;;;;;;;;;;;;;;;;;4438341;32;20309;-75
2023/01/07 15:35:21;;;;;;;;;;;;;;;;;;4437241;32;19941;-75
2023/01/07 15:37:47;;;;;;;;;;;;;;;;;;4422852;32;20056;-75
2023/01/07 15:40:12;;;;;;;;;;;;;;;;;;4437236;32;19937;-75
2023/01/07 15:42:37;;;;;;;;;;;;;;;;;;4437243;32;19933;-75
2023/01/07 15:45:02;;;;;;;;;;;;;;;;;;4436957;32;19932;-75
2023/01/07 15:47:27;;;;;;;;;;;;;;;;;;4438521;32;20004;-76
2023/01/07 15:49:52;;;;;;;;;;;;;;;;;;4436979;32;20299;-75
2023/01/07 15:52:17;;;;;;;;;;;;;;;;;;4422518;32;19977;-75
2023/01/07 15:54:43;;;;;;;;;;;;;;;;;;4438528;32;19936;-74
2023/01/07 15:57:08;;;;;;;;;;;;;;;;;;4422985;32;19992;-73
2023/01/07 15:59:33;;;;;;;;;;;;;;;;;;4437396;32;19933;-75
2023/01/07 16:01:58;;;;;;;;;;;;;;;;;;4437384;32;19937;-75
2023/01/07 16:04:23;;;;;;;;;;;;;;;;;;4437455;32;19944;-76
2023/01/07 16:06:48;;;;;;;;;;;;;;;;;;4423231;32;20239;-76
2023/01/07 16:09:13;;;;;;;;;;;;;;;;;;4436921;32;19966;-76
2023/01/07 16:11:39;;;;;;;;;;;;;;;;;;4436344;32;19956;-76
2023/01/07 16:14:04;;;;;;;;;;;;;;;;;;4436618;32;19932;-77
2023/01/07 16:16:29;;;;;;;;;;;;;;;;;;4435377;32;20022;-75
2023/01/07 16:18:54;;;;;;;;;;;;;;;;;;4426065;32;20585;-75
2023/01/07 16:21:20;;;;;;;;;;;;;;;;;;4428533;32;19936;-75
2023/01/07 16:23:45;;;;;;;;;;;;;;;;;;4425173;32;19985;-76
2023/01/07 16:26:10;;;;;;;;;;;;;;;;;;4429824;32;19952;-75
2023/01/07 16:28:35;;;;;;;;;;;;;;;;;;4428746;32;20008;-75
2023/01/07 16:31:00;;;;;;;;;;;;;;;;;;4430515;32;19945;-75
2023/01/07 16:33:25;;;;;;;;;;;;;;;;;;4426304;32;19937;-75